Time;durP1;ratioP1;P1;durP2;ratioP2;P2;SDS_P1;SDS_P2;PMS_P1;PMS_P2;Temp;Humidity;BMP_temperature;BMP_pressure;BME280_temperature;BME280_humidity;BME280_pressure;Samples;Min_cycle;Max_cycle;Signal;HPM_P1;HPM_P2
2023/11/01 00:00:17;;;;;;;;;;;22.60;68.70;;;;;;5029005;28;1680;-72
2023/11/01 00:02:42;;;;;;;;;;;22.60;68.70;;;;;;5029073;28;1386;-71
2023/11/01 00:05:08;;;;;;;;;;;22.60;68.80;;;;;;5010416;28;1915;-71
2023/11/01 00:07:33;;;;;;;;;;;22.60;68.80;;;;;;4997416;28;1337;-69
2023/11/01 00:09:59;;;;;;;;;;;22.60;68.90;;;;;;5027702;28;1715;-70
2023/11/01 00:12:24;;;;;;;;;;;22.60;69.30;;;;;;5026711;28;1359;-70
2023/11/01 00:14:52;;;;;;;;;;;22.60;69.70;;;;;;5007272;28;1290;-69
2023/11/01 00:17:18;;;;;;;;;;;22.50;69.80;;;;;;5027522;28;1269;-71
2023/11/01 00:19:43;;;;;;;;;;;22.60;69.90;;;;;;5006742;28;1472;-71
2023/11/01 00:22:09;;;;;;;;;;;22.60;70.10;;;;;;5027545;28;1450;-70
2023/11/01 00:24:35;;;;;;;;;;;22.60;70.20;;;;;;5006937;28;1978;-70
2023/11/01 00:27:00;;;;;;;;;;;22.50;70.10;;;;;;5026721;28;1246;-71
2023/11/01 00:29:26;;;;;;;;;;;22.50;70.20;;;;;;5025211;28;1232;-72
2023/11/01 00:31:51;;;;;;;;;;;22.60;70.50;;;;;;5008583;28;1482;-72
2023/11/01 00:34:18;;;;;;;;;;;22.60;70.70;;;;;;5026492;28;1253;-72
2023/11/01 00:36:43;;;;;;;;;;;22.60;70.80;;;;;;5007530;28;1384;-72
2023/11/01 00:39:09;;;;;;;;;;;22.60;70.50;;;;;;4998342;28;1277;-71
2023/11/01 00:41:34;;;;;;;;;;;22.60;70.40;;;;;;5004189;28;1823;-71
2023/11/01 00:44:00;;;;;;;;;;;22.60;70.50;;;;;;5025823;28;1902;-72
2023/11/01 00:46:25;;;;;;;;;;;22.60;71.20;;;;;;5026868;28;1359;-71
2023/11/01 00:48:51;;;;;;;;;;;22.60;70.40;;;;;;5008897;28;1353;-72
2023/11/01 00:51:16;;;;;;;;;;;22.60;70.50;;;;;;5027222;28;1601;-72
2023/11/01 00:53:42;;;;;;;;;;;22.60;70.50;;;;;;5027275;28;992;-71
2023/11/01 00:56:08;;;;;;;;;;;22.60;70.50;;;;;;5026220;28;1520;-71
2023/11/01 00:58:34;;;;;;;;;;;22.60;70.60;;;;;;5027326;28;1413;-71
2023/11/01 01:00:59;;;;;;;;;;;22.60;70.70;;;;;;5027212;28;1300;-70
2023/11/01 01:03:25;;;;;;;;;;;22.60;70.70;;;;;;5026168;28;1903;-71
2023/11/01 01:05:50;;;;;;;;;;;22.60;70.60;;;;;;5025486;28;1139;-71
2023/11/01 01:08:15;;;;;;;;;;;22.60;70.70;;;;;;5026613;28;1068;-69
2023/11/01 01:10:41;;;;;;;;;;;22.60;70.70;;;;;;5008490;28;1371;-71
2023/11/01 01:13:06;;;;;;;;;;;22.60;70.70;;;;;;5026113;28;928;-71
2023/11/01 01:15:32;;;;;;;;;;;22.60;70.70;;;;;;5024927;28;1366;-70
2023/11/01 01:17:58;;;;;;;;;;;22.60;70.70;;;;;;5024664;28;1167;-71
2023/11/01 01:20:23;;;;;;;;;;;22.60;70.70;;;;;;5027195;28;1368;-71
2023/11/01 01:22:49;;;;;;;;;;;22.60;70.70;;;;;;5026232;28;1507;-71
2023/11/01 01:25:14;;;;;;;;;;;22.60;70.70;;;;;;5024423;28;1902;-72
2023/11/01 01:27:41;;;;;;;;;;;22.60;70.70;;;;;;5008988;28;1209;-71
2023/11/01 01:30:07;;;;;;;;;;;22.60;70.70;;;;;;5026440;28;1296;-71
2023/11/01 01:32:33;;;;;;;;;;;22.60;70.80;;;;;;5008494;28;1335;-72
2023/11/01 01:34:58;;;;;;;;;;;22.60;70.70;;;;;;5030785;28;1399;-70
2023/11/01 01:37:24;;;;;;;;;;;22.60;70.80;;;;;;5029163;28;1457;-71
2023/11/01 01:39:49;;;;;;;;;;;22.60;70.80;;;;;;4996830;28;1599;-71
2023/11/01 01:42:15;;;;;;;;;;;22.60;70.80;;;;;;5009558;28;1276;-71
2023/11/01 01:44:41;;;;;;;;;;;22.60;70.80;;;;;;5030558;28;1977;-72
2023/11/01 01:47:06;;;;;;;;;;;22.60;70.80;;;;;;5008959;28;1585;-72
2023/11/01 01:49:32;;;;;;;;;;;22.60;70.80;;;;;;5008978;28;1425;-72
2023/11/01 01:51:58;;;;;;;;;;;22.60;70.80;;;;;;5010193;28;1524;-71
2023/11/01 01:54:23;;;;;;;;;;;22.60;70.80;;;;;;5011327;28;1601;-72
2023/11/01 01:56:49;;;;;;;;;;;22.60;70.80;;;;;;5010079;28;1607;-70
2023/11/01 01:59:14;;;;;;;;;;;22.60;70.80;;;;;;5009103;28;1517;-72
2023/11/01 02:01:40;;;;;;;;;;;22.60;70.80;;;;;;5029724;28;1438;-71
2023/11/01 02:04:05;;;;;;;;;;;22.60;70.80;;;;;;5007196;28;1971;-71
2023/11/01 02:06:31;;;;;;;;;;;22.60;70.80;;;;;;5029804;28;1358;-71
2023/11/01 02:08:57;;;;;;;;;;;22.60;70.70;;;;;;5008051;28;1514;-71
2023/11/01 02:11:22;;;;;;;;;;;22.60;70.50;;;;;;5029910;28;1378;-72
2023/11/01 02:13:48;;;;;;;;;;;22.60;70.30;;;;;;5011070;28;1488;-72
2023/11/01 02:16:13;;;;;;;;;;;22.60;70.30;;;;;;5029856;28;1272;-71
2023/11/01 02:18:39;;;;;;;;;;;22.60;70.40;;;;;;5030484;28;1351;-71
2023/11/01 02:21:05;;;;;;;;;;;22.60;70.20;;;;;;5029219;28;1529;-71
2023/11/01 02:23:34;;;;;;;;;;;22.60;70.20;;;;;;5013170;28;1964;-71
2023/11/01 02:25:59;;;;;;;;;;;22.60;70.20;;;;;;5008727;28;1491;-71
2023/11/01 02:28:25;;;;;;;;;;;22.50;70.20;;;;;;5029977;28;1384;-70
2023/11/01 02:30:50;;;;;;;;;;;22.50;70.20;;;;;;5008724;28;1625;-70
2023/11/01 02:33:16;;;;;;;;;;;22.50;70.20;;;;;;5010954;28;1336;-71
2023/11/01 02:41:47;;;;;;;;;;;22.40;70.20;;;;;;5027020;28;1378;-70
2023/11/01 02:44:13;;;;;;;;;;;22.40;70.30;;;;;;5026719;28;1906;-69
2023/11/01 02:46:38;;;;;;;;;;;22.40;70.40;;;;;;5011422;28;1372;-70
2023/11/01 02:49:03;;;;;;;;;;;22.40;71.10;;;;;;4991831;28;1367;-71
2023/11/01 02:51:29;;;;;;;;;;;22.40;70.40;;;;;;5028742;28;1448;-70
2023/11/01 02:53:55;;;;;;;;;;;22.30;70.40;;;;;;5029251;28;1336;-70
2023/11/01 02:56:20;;;;;;;;;;;22.30;70.50;;;;;;5029133;28;1452;-71
2023/11/01 02:58:46;;;;;;;;;;;22.30;70.50;;;;;;5030259;28;1335;-70
2023/11/01 03:01:13;;;;;;;;;;;22.30;70.50;;;;;;5027987;28;1681;-70
2023/11/01 03:03:39;;;;;;;;;;;22.30;70.50;;;;;;5028159;28;1910;-71
2023/11/01 03:06:05;;;;;;;;;;;22.30;70.50;;;;;;5006099;28;1448;-71
2023/11/01 03:08:30;;;;;;;;;;;22.30;70.60;;;;;;5025686;28;1432;-71
2023/11/01 03:10:55;;;;;;;;;;;22.30;70.60;;;;;;5006141;28;1366;-71
2023/11/01 03:13:21;;;;;;;;;;;22.20;70.50;;;;;;5028763;28;1700;-71
2023/11/01 03:15:46;;;;;;;;;;;22.20;70.50;;;;;;5028327;28;1424;-70
2023/11/01 03:18:12;;;;;;;;;;;22.20;70.50;;;;;;5027034;28;1451;-70
2023/11/01 03:20:38;;;;;;;;;;;22.20;70.60;;;;;;5028282;28;1554;-70
2023/11/01 03:23:04;;;;;;;;;;;22.20;70.60;;;;;;5007183;28;1402;-70
2023/11/01 03:25:29;;;;;;;;;;;22.20;70.60;;;;;;5028654;28;1902;-71
2023/11/01 03:27:55;;;;;;;;;;;22.20;70.60;;;;;;5009942;28;1295;-69
2023/11/01 03:30:22;;;;;;;;;;;22.20;70.60;;;;;;5028928;28;1383;-71
2023/11/01 03:32:48;;;;;;;;;;;22.20;70.60;;;;;;5009570;28;1322;-70
2023/11/01 03:35:14;;;;;;;;;;;22.20;70.60;;;;;;5009720;28;1419;-69
2023/11/01 03:37:40;;;;;;;;;;;22.20;70.70;;;;;;5027324;28;1291;-70
2023/11/01 03:40:06;;;;;;;;;;;22.20;70.70;;;;;;5026948;28;1806;-69
2023/11/01 03:42:31;;;;;;;;;;;22.20;70.70;;;;;;5029754;28;1374;-70
2023/11/01 03:44:57;;;;;;;;;;;22.10;70.70;;;;;;5028907;28;1975;-70
2023/11/01 03:47:22;;;;;;;;;;;22.10;70.70;;;;;;5025785;28;1649;-70
2023/11/01 03:49:48;;;;;;;;;;;22.10;70.70;;;;;;5026263;28;1371;-69
2023/11/01 03:52:13;;;;;;;;;;;22.10;70.70;;;;;;5028646;28;1143;-70
2023/11/01 03:54:39;;;;;;;;;;;22.10;70.70;;;;;;5028059;28;1291;-70
2023/11/01 03:57:04;;;;;;;;;;;22.00;70.70;;;;;;5026851;28;1287;-71
2023/11/01 03:59:30;;;;;;;;;;;22.10;70.80;;;;;;5010303;28;1519;-70
2023/11/01 04:01:56;;;;;;;;;;;22.00;70.70;;;;;;5010184;28;1212;-70
2023/11/01 04:04:21;;;;;;;;;;;22.00;71.50;;;;;;5009981;28;1972;-70
2023/11/01 04:06:47;;;;;;;;;;;22.00;70.70;;;;;;5026718;28;1464;-70
2023/11/01 04:09:12;;;;;;;;;;;22.00;70.80;;;;;;5028234;28;1377;-69
2023/11/01 04:11:38;;;;;;;;;;;22.10;70.80;;;;;;5028498;28;1541;-70
2023/11/01 04:14:03;;;;;;;;;;;22.00;70.80;;;;;;5028209;28;1430;-69
2023/11/01 04:16:29;;;;;;;;;;;22.00;70.80;;;;;;5027311;28;1438;-70
2023/11/01 04:18:56;;;;;;;;;;;22.00;70.80;;;;;;5028142;28;1475;-70
2023/11/01 04:21:22;;;;;;;;;;;22.00;70.80;;;;;;5027402;28;1346;-70
2023/11/01 04:23:47;;;;;;;;;;;22.00;70.80;;;;;;5027816;28;1914;-70
2023/11/01 04:26:13;;;;;;;;;;;22.00;70.80;;;;;;5026132;28;1232;-70
2023/11/01 04:28:38;;;;;;;;;;;22.00;70.80;;;;;;5028292;28;1359;-69
2023/11/01 04:31:04;;;;;;;;;;;22.00;70.80;;;;;;5026204;28;1398;-70
2023/11/01 04:33:31;;;;;;;;;;;21.90;70.80;;;;;;5026532;28;1364;-69
2023/11/01 04:35:57;;;;;;;;;;;21.90;70.80;;;;;;5025534;28;1318;-70
2023/11/01 04:38:23;;;;;;;;;;;21.90;70.80;;;;;;5028541;28;1292;-70
2023/11/01 04:40:51;;;;;;;;;;;21.90;70.80;;;;;;5023380;28;1482;-70
2023/11/01 04:43:19;;;;;;;;;;;21.90;70.80;;;;;;5023729;28;1386;-70
2023/11/01 04:45:45;;;;;;;;;;;22.00;70.90;;;;;;5007363;28;1969;-70
2023/11/01 04:48:10;;;;;;;;;;;21.90;70.80;;;;;;5024480;28;1344;-70
2023/11/01 04:50:36;;;;;;;;;;;21.90;70.90;;;;;;5026546;28;1437;-70
2023/11/01 04:53:02;;;;;;;;;;;21.90;70.90;;;;;;5027829;28;1490;-70
2023/11/01 04:55:27;;;;;;;;;;;21.90;70.80;;;;;;5028377;28;1489;-70
2023/11/01 04:57:53;;;;;;;;;;;21.90;70.80;;;;;;5026297;28;1357;-70
2023/11/01 05:00:18;;;;;;;;;;;21.90;70.90;;;;;;5025549;28;1367;-70
2023/11/01 05:02:47;;;;;;;;;;;21.90;70.90;;;;;;5025431;28;1281;-70
2023/11/01 05:05:12;;;;;;;;;;;21.90;70.90;;;;;;5028051;28;1962;-70
2023/11/01 05:07:38;;;;;;;;;;;21.90;70.90;;;;;;5010802;28;1042;-71
2023/11/01 05:10:04;;;;;;;;;;;21.90;70.90;;;;;;5030743;28;1370;-70
2023/11/01 05:12:29;;;;;;;;;;;21.90;70.90;;;;;;5031162;28;1256;-70
2023/11/01 05:14:58;;;;;;;;;;;21.90;70.80;;;;;;5010527;28;1295;-70
2023/11/01 05:17:23;;;;;;;;;;;21.90;70.80;;;;;;5028706;28;1326;-70
2023/11/01 05:19:49;;;;;;;;;;;21.90;70.80;;;;;;5012245;28;1669;-70
2023/11/01 05:22:14;;;;;;;;;;;21.90;71.40;;;;;;5027983;28;1472;-70
2023/11/01 05:24:40;;;;;;;;;;;21.90;70.60;;;;;;5011960;28;1973;-70
2023/11/01 05:27:07;;;;;;;;;;;21.90;70.50;;;;;;5029721;28;1519;-71
2023/11/01 05:29:33;;;;;;;;;;;21.90;70.40;;;;;;5028963;28;1444;-70
2023/11/01 05:31:58;;;;;;;;;;;22.00;70.40;;;;;;5013591;28;1651;-70
2023/11/01 05:34:24;;;;;;;;;;;22.00;70.30;;;;;;5032037;28;1315;-71
2023/11/01 05:36:50;;;;;;;;;;;22.00;71.00;;;;;;5028138;28;1265;-71
2023/11/01 05:39:16;;;;;;;;;;;22.00;70.10;;;;;;5030738;28;1587;-71
2023/11/01 05:41:44;;;;;;;;;;;22.00;70.10;;;;;;5030038;28;1428;-71
2023/11/01 05:44:10;;;;;;;;;;;22.00;70.00;;;;;;5030621;28;1965;-70
2023/11/01 05:46:35;;;;;;;;;;;22.10;70.00;;;;;;5030098;28;1458;-69
2023/11/01 05:49:01;;;;;;;;;;;22.10;70.00;;;;;;5030552;28;1548;-69
2023/11/01 05:51:26;;;;;;;;;;;22.10;69.90;;;;;;5028627;28;1380;-69
2023/11/01 05:53:52;;;;;;;;;;;22.10;69.80;;;;;;5031197;28;1312;-70
2023/11/01 05:56:18;;;;;;;;;;;22.10;69.80;;;;;;5031215;28;1156;-69
2023/11/01 05:58:43;;;;;;;;;;;22.10;69.70;;;;;;5031108;28;1356;-70
2023/11/01 06:01:08;;;;;;;;;;;22.10;69.70;;;;;;5028085;28;1386;-70
2023/11/01 06:03:34;;;;;;;;;;;22.20;69.60;;;;;;5029570;28;1906;-70
2023/11/01 06:05:59;;;;;;;;;;;22.20;69.60;;;;;;5011545;28;1410;-69
2023/11/01 06:08:25;;;;;;;;;;;22.20;69.60;;;;;;5029669;28;1676;-69
2023/11/01 06:10:51;;;;;;;;;;;22.20;69.50;;;;;;5012239;28;1217;-69
2023/11/01 06:13:17;;;;;;;;;;;22.20;69.50;;;;;;5028686;28;1239;-69
2023/11/01 06:15:42;;;;;;;;;;;22.20;69.40;;;;;;5012435;28;2024;-70
2023/11/01 06:18:08;;;;;;;;;;;22.20;69.40;;;;;;5029346;28;1295;-69
2023/11/01 06:20:33;;;;;;;;;;;22.20;69.30;;;;;;5012613;28;1482;-70
2023/11/01 06:22:59;;;;;;;;;;;22.20;69.30;;;;;;5011009;28;1582;-69
2023/11/01 06:25:25;;;;;;;;;;;22.20;69.30;;;;;;5007598;28;1964;-70
2023/11/01 06:27:50;;;;;;;;;;;22.20;69.30;;;;;;5005454;28;1363;-69
2023/11/01 06:30:16;;;;;;;;;;;22.20;68.90;;;;;;5008174;28;1425;-69
2023/11/01 06:32:42;;;;;;;;;;;22.20;68.90;;;;;;5025067;28;1889;-70
2023/11/01 06:35:07;;;;;;;;;;;22.20;69.70;;;;;;5021824;28;1865;-71
2023/11/01 06:37:33;;;;;;;;;;;22.20;69.00;;;;;;5028555;28;1378;-70
2023/11/01 06:39:59;;;;;;;;;;;22.20;69.10;;;;;;5009923;28;1308;-70
2023/11/01 06:42:24;;;;;;;;;;;22.10;69.50;;;;;;5011080;28;1362;-69
2023/11/01 06:44:49;;;;;;;;;;;22.10;69.20;;;;;;5005248;28;1972;-71
2023/11/01 06:47:15;;;;;;;;;;;22.10;69.20;;;;;;5028549;28;1260;-70
2023/11/01 06:49:40;;;;;;;;;;;22.10;70.10;;;;;;5028591;28;1330;-70
2023/11/01 06:52:06;;;;;;;;;;;22.10;69.40;;;;;;5027824;28;1291;-71
2023/11/01 06:54:32;;;;;;;;;;;22.00;69.40;;;;;;5026455;28;1476;-71
2023/11/01 06:56:57;;;;;;;;;;;22.10;69.40;;;;;;5028941;28;1228;-71
2023/11/01 06:59:23;;;;;;;;;;;22.00;69.40;;;;;;5028686;28;1365;-71
2023/11/01 07:01:48;;;;;;;;;;;22.10;69.50;;;;;;5027413;28;1410;-70
2023/11/01 07:04:14;;;;;;;;;;;22.00;69.50;;;;;;5006677;28;1914;-71
2023/11/01 07:06:41;;;;;;;;;;;22.00;69.50;;;;;;5026110;28;1313;-71
2023/11/01 07:09:07;;;;;;;;;;;22.00;69.60;;;;;;5002398;28;1560;-72
2023/11/01 07:11:32;;;;;;;;;;;22.00;69.60;;;;;;5008300;28;1276;-72
2023/11/01 07:14:01;;;;;;;;;;;22.00;69.70;;;;;;5010516;28;1435;-70
2023/11/01 07:16:26;;;;;;;;;;;21.90;69.60;;;;;;5026847;28;1358;-69
2023/11/01 07:18:52;;;;;;;;;;;21.90;69.60;;;;;;5025839;28;1441;-69
2023/11/01 07:21:17;;;;;;;;;;;21.90;69.70;;;;;;5027380;28;1423;-69
2023/11/01 07:23:43;;;;;;;;;;;21.90;69.80;;;;;;5024025;28;1926;-70
2023/11/01 07:26:09;;;;;;;;;;;21.90;69.80;;;;;;5026858;28;1459;-73
2023/11/01 07:28:34;;;;;;;;;;;21.90;69.80;;;;;;5007988;28;1489;-73
2023/11/01 07:31:00;;;;;;;;;;;21.90;69.80;;;;;;5013849;28;1429;-73
2023/11/01 07:33:25;;;;;;;;;;;21.90;69.90;;;;;;5027823;28;1687;-70
2023/11/01 07:35:51;;;;;;;;;;;21.80;69.80;;;;;;5026516;28;1344;-74
2023/11/01 07:38:16;;;;;;;;;;;21.80;69.90;;;;;;5023740;28;1307;-73
2023/11/01 07:40:42;;;;;;;;;;;21.80;69.90;;;;;;5005588;28;1257;-73
2023/11/01 07:43:07;;;;;;;;;;;21.80;70.10;;;;;;5028120;28;1243;-71
2023/11/01 07:45:33;;;;;;;;;;;21.80;70.10;;;;;;5028856;28;1963;-73
2023/11/01 07:47:58;;;;;;;;;;;21.80;70.10;;;;;;5028313;28;991;-73
2023/11/01 07:50:24;;;;;;;;;;;21.80;70.10;;;;;;5027512;28;1407;-72
2023/11/01 07:52:49;;;;;;;;;;;21.70;70.20;;;;;;5029040;28;1386;-72
2023/11/01 07:55:15;;;;;;;;;;;21.70;70.20;;;;;;5009143;28;1253;-72
2023/11/01 07:57:40;;;;;;;;;;;21.70;70.20;;;;;;5027501;28;1549;-72
2023/11/01 08:00:08;;;;;;;;;;;21.70;70.30;;;;;;5027153;28;1450;-73
2023/11/01 08:02:34;;;;;;;;;;;21.70;70.30;;;;;;5028364;28;1448;-73
2023/11/01 08:04:59;;;;;;;;;;;21.70;70.40;;;;;;5027075;28;1918;-73
2023/11/01 08:07:25;;;;;;;;;;;21.70;70.40;;;;;;5004783;28;1350;-73
2023/11/01 08:09:51;;;;;;;;;;;21.70;70.50;;;;;;5007005;28;1563;-73
2023/11/01 08:12:17;;;;;;;;;;;21.70;70.50;;;;;;5007744;28;1394;-72
2023/11/01 08:14:42;;;;;;;;;;;21.70;70.50;;;;;;5027641;28;1501;-70
2023/11/01 08:17:08;;;;;;;;;;;21.60;70.40;;;;;;5025370;28;1500;-71
2023/11/01 08:19:33;;;;;;;;;;;21.60;70.50;;;;;;5006063;28;1269;-72
2023/11/01 08:21:59;;;;;;;;;;;21.60;70.50;;;;;;5007744;28;1719;-72
2023/11/01 08:24:24;;;;;;;;;;;21.60;70.60;;;;;;5027224;28;1973;-72
2023/11/01 08:26:50;;;;;;;;;;;21.60;70.60;;;;;;5026789;28;1412;-72
2023/11/01 08:29:16;;;;;;;;;;;21.60;70.70;;;;;;5027596;28;1425;-72
2023/11/01 08:31:41;;;;;;;;;;;21.60;70.70;;;;;;5026929;28;1375;-73
2023/11/01 08:34:07;;;;;;;;;;;21.60;70.70;;;;;;5028111;28;1945;-73
2023/11/01 08:36:32;;;;;;;;;;;21.60;70.70;;;;;;5009659;28;1350;-73
2023/11/01 08:38:58;;;;;;;;;;;21.60;70.70;;;;;;5007068;28;1720;-73
2023/11/01 08:41:23;;;;;;;;;;;21.50;70.70;;;;;;5005406;28;1680;-73
2023/11/01 08:43:49;;;;;;;;;;;21.60;70.80;;;;;;5027785;28;1980;-73
2023/11/01 08:46:17;;;;;;;;;;;21.50;70.70;;;;;;5004414;28;1559;-73
2023/11/01 08:48:43;;;;;;;;;;;21.50;70.70;;;;;;5025882;28;1395;-73
2023/11/01 08:51:08;;;;;;;;;;;21.50;70.70;;;;;;5025479;28;1403;-73
2023/11/01 08:53:36;;;;;;;;;;;21.50;70.70;;;;;;5007260;28;1180;-73
2023/11/01 08:56:02;;;;;;;;;;;21.50;71.40;;;;;;5026958;28;943;-71
2023/11/01 08:58:27;;;;;;;;;;;21.60;70.70;;;;;;4995706;28;1457;-74
2023/11/01 09:00:53;;;;;;;;;;;21.50;70.70;;;;;;5025076;28;1349;-73
2023/11/01 09:03:22;;;;;;;;;;;21.50;70.70;;;;;;5003544;28;1099;-73
2023/11/01 09:05:48;;;;;;;;;;;21.50;70.60;;;;;;5027068;28;1969;-72
2023/11/01 09:08:13;;;;;;;;;;;21.50;70.60;;;;;;5006234;28;1310;-74
2023/11/01 09:10:38;;;;;;;;;;;21.50;70.60;;;;;;5026942;28;1290;-73
2023/11/01 09:13:04;;;;;;;;;;;21.50;70.70;;;;;;4999282;28;1340;-71
2023/11/01 09:15:29;;;;;;;;;;;21.50;70.70;;;;;;5026923;28;1163;-73
2023/11/01 09:17:55;;;;;;;;;;;21.50;70.70;;;;;;5006458;28;896;-74
2023/11/01 09:20:20;;;;;;;;;;;21.50;70.60;;;;;;5007380;28;1399;-74
2023/11/01 09:22:46;;;;;;;;;;;21.50;70.70;;;;;;5027416;28;897;-74
2023/11/01 09:25:11;;;;;;;;;;;21.50;70.70;;;;;;5026468;28;1989;-73
2023/11/01 09:27:37;;;;;;;;;;;21.50;70.80;;;;;;5027585;28;1494;-74
2023/11/01 09:30:04;;;;;;;;;;;21.50;70.70;;;;;;5028512;28;1323;-72
2023/11/01 09:32:30;;;;;;;;;;;21.50;70.70;;;;;;5028108;28;908;-73
2023/11/01 09:34:56;;;;;;;;;;;21.50;70.70;;;;;;5028704;28;990;-72
2023/11/01 09:37:22;;;;;;;;;;;21.50;70.70;;;;;;5027838;28;1221;-72
2023/11/01 09:39:47;;;;;;;;;;;21.50;70.70;;;;;;5025074;28;1350;-72
2023/11/01 09:42:20;;;;;;;;;;;21.50;70.70;;;;;;5025888;28;1341;-71
2023/11/01 09:44:49;;;;;;;;;;;21.50;70.70;;;;;;5004317;28;1898;-71
2023/11/01 09:47:16;;;;;;;;;;;21.50;70.70;;;;;;5002343;28;1440;-71
2023/11/01 09:49:44;;;;;;;;;;;21.50;70.70;;;;;;5005693;28;1518;-72
2023/11/01 09:52:10;;;;;;;;;;;21.50;71.50;;;;;;5006757;28;1365;-72
2023/11/01 09:54:36;;;;;;;;;;;21.50;70.70;;;;;;5006590;28;1462;-72
2023/11/01 09:57:01;;;;;;;;;;;21.50;70.80;;;;;;5010332;28;1249;-73
2023/11/01 09:59:27;;;;;;;;;;;21.50;70.70;;;;;;5029898;28;1536;-72
2023/11/01 10:01:52;;;;;;;;;;;21.50;70.80;;;;;;5029819;28;1379;-73
2023/11/01 10:04:19;;;;;;;;;;;21.50;70.80;;;;;;5007000;28;1906;-73
2023/11/01 10:06:44;;;;;;;;;;;21.50;70.80;;;;;;5007628;28;1151;-74
2023/11/01 10:09:09;;;;;;;;;;;21.50;70.80;;;;;;5028300;28;1309;-73
2023/11/01 10:11:35;;;;;;;;;;;21.50;71.60;;;;;;5030004;28;1309;-73
2023/11/01 10:14:00;;;;;;;;;;;21.50;70.90;;;;;;5029316;28;1468;-70
2023/11/01 10:16:26;;;;;;;;;;;21.50;70.90;;;;;;5027216;28;1363;-72
2023/11/01 10:18:52;;;;;;;;;;;21.50;70.90;;;;;;5028763;28;1857;-71
2023/11/01 10:21:17;;;;;;;;;;;21.40;70.90;;;;;;5009052;28;2138;-70
2023/11/01 10:23:43;;;;;;;;;;;21.40;70.90;;;;;;5026772;28;1977;-73
2023/11/01 10:26:08;;;;;;;;;;;21.40;70.90;;;;;;5029210;28;1355;-73
2023/11/01 10:28:37;;;;;;;;;;;21.40;71.00;;;;;;5005657;28;1358;-71
2023/11/01 10:31:04;;;;;;;;;;;21.40;71.00;;;;;;5007654;28;1464;-74
2023/11/01 10:33:32;;;;;;;;;;;21.40;71.00;;;;;;5006063;28;1379;-73
2023/11/01 10:36:01;;;;;;;;;;;21.40;71.00;;;;;;5007807;28;1408;-74
2023/11/01 10:38:27;;;;;;;;;;;21.40;71.10;;;;;;5006838;28;1364;-73
2023/11/01 10:40:52;;;;;;;;;;;21.40;71.10;;;;;;4997731;28;1380;-72
2023/11/01 10:43:18;;;;;;;;;;;21.40;71.10;;;;;;5011212;28;1586;-74
2023/11/01 10:45:46;;;;;;;;;;;21.40;71.10;;;;;;5006628;28;1965;-70
2023/11/01 10:48:12;;;;;;;;;;;21.40;71.20;;;;;;5005097;28;1449;-74
2023/11/01 10:50:38;;;;;;;;;;;21.40;71.10;;;;;;5007563;28;1360;-74
2023/11/01 10:53:03;;;;;;;;;;;21.40;71.10;;;;;;5003655;28;1460;-74
2023/11/01 10:55:29;;;;;;;;;;;21.40;70.70;;;;;;5005930;28;1282;-70
2023/11/01 10:57:55;;;;;;;;;;;21.30;70.30;;;;;;5007689;28;1398;-71
2023/11/01 11:00:29;;;;;;;;;;;21.30;70.10;;;;;;5006735;28;1466;-72
2023/11/01 11:03:05;;;;;;;;;;;21.30;70.00;;;;;;5006851;28;1476;-73
2023/11/01 11:05:30;;;;;;;;;;;21.30;70.00;;;;;;5006369;28;1918;-74
2023/11/01 11:07:59;;;;;;;;;;;21.30;70.00;;;;;;5007973;28;1559;-73
2023/11/01 11:10:32;;;;;;;;;;;21.30;70.20;;;;;;5025938;28;1330;-73
2023/11/01 11:13:10;;;;;;;;;;;21.30;70.40;;;;;;5007812;28;1290;-73
2023/11/01 11:15:47;;;;;;;;;;;21.30;70.40;;;;;;5029043;28;1367;-72
2023/11/01 11:18:18;;;;;;;;;;;21.40;70.30;;;;;;5027467;28;1320;-74
2023/11/01 11:20:44;;;;;;;;;;;21.40;70.20;;;;;;5013633;28;1464;-73
2023/11/01 11:23:12;;;;;;;;;;;21.40;70.20;;;;;;5029843;28;1443;-73
2023/11/01 11:25:42;;;;;;;;;;;21.40;70.10;;;;;;5010951;28;1902;-73
2023/11/01 11:28:07;;;;;;;;;;;21.40;70.00;;;;;;5027011;28;1374;-73
2023/11/01 11:30:46;;;;;;;;;;;21.40;69.80;;;;;;5004071;28;1377;-74
2023/11/01 11:33:12;;;;;;;;;;;21.40;69.80;;;;;;5025601;28;1407;-73
2023/11/01 11:35:41;;;;;;;;;;;21.40;69.80;;;;;;4998341;28;1543;-73
2023/11/01 11:38:25;;;;;;;;;;;21.40;70.20;;;;;;5011364;28;1641;-69
2023/11/01 11:41:10;;;;;;;;;;;21.50;71.60;;;;;;5026803;28;1375;-73
2023/11/01 11:43:55;;;;;;;;;;;21.50;72.20;;;;;;5010323;28;1451;-73
2023/11/01 11:46:31;;;;;;;;;;;21.50;71.10;;;;;;5026345;28;1272;-73
2023/11/01 11:48:59;;;;;;;;;;;21.50;71.00;;;;;;5001469;28;1521;-74
2023/11/01 11:51:25;;;;;;;;;;;21.60;72.30;;;;;;5024279;28;1544;-72
2023/11/01 11:53:51;;;;;;;;;;;21.60;72.90;;;;;;5028933;28;1646;-72
2023/11/01 11:56:19;;;;;;;;;;;21.60;72.30;;;;;;5008732;28;1318;-73
2023/11/01 11:58:45;;;;;;;;;;;21.60;71.70;;;;;;5026648;28;1703;-70
2023/11/01 12:01:26;;;;;;;;;;;21.60;70.90;;;;;;4992876;28;1937;-70
2023/11/01 12:03:52;;;;;;;;;;;21.60;71.60;;;;;;5025707;28;1979;-74
2023/11/01 12:06:19;;;;;;;;;;;21.70;72.70;;;;;;5027825;28;1242;-73
2023/11/01 12:08:44;;;;;;;;;;;21.60;65.70;;;;;;5027176;28;1064;-71
2023/11/01 12:11:09;;;;;;;;;;;21.60;58.50;;;;;;5028255;28;1513;-73
2023/11/01 12:13:44;;;;;;;;;;;21.50;56.70;;;;;;5028232;28;1065;-74
2023/11/01 12:16:10;;;;;;;;;;;21.40;55.80;;;;;;5025974;28;1165;-73
2023/11/01 12:18:36;;;;;;;;;;;21.20;55.70;;;;;;5009433;28;1476;-73
2023/11/01 12:21:12;;;;;;;;;;;21.20;56.20;;;;;;5027572;28;1359;-73
2023/11/01 12:23:44;;;;;;;;;;;21.10;57.10;;;;;;5027633;28;976;-74
2023/11/01 12:26:10;;;;;;;;;;;21.10;58.20;;;;;;5002941;28;1894;-73
2023/11/01 12:28:35;;;;;;;;;;;21.10;59.10;;;;;;5026719;28;1180;-72
2023/11/01 12:31:12;;;;;;;;;;;21.10;59.50;;;;;;5028337;28;1336;-72
2023/11/01 12:33:37;;;;;;;;;;;21.10;60.00;;;;;;5027854;28;1435;-74
2023/11/01 12:36:03;;;;;;;;;;;21.10;60.40;;;;;;5009271;28;2298;-72
2023/11/01 12:38:28;;;;;;;;;;;21.10;60.50;;;;;;5004600;28;1507;-73
2023/11/01 12:40:57;;;;;;;;;;;21.10;60.70;;;;;;5028803;28;1379;-73
2023/11/01 12:43:22;;;;;;;;;;;21.10;60.70;;;;;;5024618;28;1472;-73
2023/11/01 12:45:49;;;;;;;;;;;21.10;60.60;;;;;;5027498;28;1906;-73
2023/11/01 12:48:15;;;;;;;;;;;21.10;60.70;;;;;;5027716;28;1471;-73
2023/11/01 12:50:40;;;;;;;;;;;21.10;60.80;;;;;;5028420;28;1435;-74
2023/11/01 12:53:06;;;;;;;;;;;21.10;60.80;;;;;;5026686;28;1440;-74
2023/11/01 12:55:32;;;;;;;;;;;21.10;58.20;;;;;;5006553;28;1482;-74
2023/11/01 12:57:59;;;;;;;;;;;21.00;57.10;;;;;;5014371;28;1299;-73
2023/11/01 13:00:25;;;;;;;;;;;21.00;57.70;;;;;;4994660;28;1387;-73
2023/11/01 13:02:51;;;;;;;;;;;21.00;58.20;;;;;;5012454;28;1520;-73
2023/11/01 13:05:17;;;;;;;;;;;21.00;58.50;;;;;;5002937;28;1965;-73
2023/11/01 13:07:45;;;;;;;;;;;21.10;58.80;;;;;;4993043;28;1509;-71
2023/11/01 13:10:11;;;;;;;;;;;21.00;59.10;;;;;;5026475;28;1578;-71
2023/11/01 13:12:37;;;;;;;;;;;21.10;59.40;;;;;;5024798;28;1164;-73
2023/11/01 13:15:03;;;;;;;;;;;21.10;59.50;;;;;;5026917;28;1462;-73
2023/11/01 13:17:29;;;;;;;;;;;21.10;59.50;;;;;;5010516;28;1775;-71
2023/11/01 13:19:55;;;;;;;;;;;21.00;58.30;;;;;;5007341;28;1348;-71
2023/11/01 13:22:22;;;;;;;;;;;21.00;58.40;;;;;;5007647;28;1304;-72
2023/11/01 13:24:47;;;;;;;;;;;21.00;58.50;;;;;;5026928;28;1906;-71
2023/11/01 13:27:13;;;;;;;;;;;21.00;58.40;;;;;;5029146;28;1298;-71
2023/11/01 13:29:39;;;;;;;;;;;21.00;58.20;;;;;;5009614;28;1369;-71
2023/11/01 13:32:04;;;;;;;;;;;21.00;58.00;;;;;;5031143;28;1304;-70
2023/11/01 13:34:30;;;;;;;;;;;21.00;58.20;;;;;;5028853;28;1435;-72
2023/11/01 13:36:57;;;;;;;;;;;21.00;58.00;;;;;;5012121;28;1455;-70
2023/11/01 13:39:23;;;;;;;;;;;21.00;58.00;;;;;;5009242;28;1326;-71
2023/11/01 13:41:52;;;;;;;;;;;21.10;58.50;;;;;;5029500;28;1437;-70
2023/11/01 13:44:18;;;;;;;;;;;21.00;58.90;;;;;;5027900;28;1914;-73
2023/11/01 13:46:43;;;;;;;;;;;21.00;58.90;;;;;;5030749;28;1210;-71
2023/11/01 13:49:09;;;;;;;;;;;21.00;58.70;;;;;;5030860;28;1572;-72
2023/11/01 13:51:34;;;;;;;;;;;21.00;58.40;;;;;;5029917;28;1290;-71
2023/11/01 13:54:00;;;;;;;;;;;21.00;58.20;;;;;;5031398;28;885;-72
2023/11/01 13:56:25;;;;;;;;;;;21.00;58.20;;;;;;5028987;28;1317;-71
2023/11/01 13:58:52;;;;;;;;;;;21.00;58.10;;;;;;5010059;28;1424;-71
2023/11/01 14:01:18;;;;;;;;;;;21.00;58.10;;;;;;5030477;28;1395;-71
2023/11/01 14:03:49;;;;;;;;;;;21.00;58.00;;;;;;5029724;28;1402;-72
2023/11/01 14:06:16;;;;;;;;;;;21.00;58.00;;;;;;5009959;28;1964;-71
2023/11/01 14:08:41;;;;;;;;;;;20.90;57.90;;;;;;5030009;28;1269;-71
2023/11/01 14:11:07;;;;;;;;;;;20.90;57.90;;;;;;5030627;28;1281;-71
2023/11/01 14:13:32;;;;;;;;;;;20.90;57.90;;;;;;5026257;28;1458;-70
2023/11/01 14:15:58;;;;;;;;;;;20.90;57.90;;;;;;5026785;28;1397;-71
2023/11/01 14:18:23;;;;;;;;;;;20.90;57.90;;;;;;5028711;28;1402;-71
2023/11/01 14:20:50;;;;;;;;;;;20.90;58.00;;;;;;5028809;28;1371;-70
2023/11/01 14:23:16;;;;;;;;;;;20.90;58.00;;;;;;5029995;28;1641;-70
2023/11/01 14:25:42;;;;;;;;;;;20.90;57.90;;;;;;4995283;28;1907;-70
2023/11/01 14:28:07;;;;;;;;;;;20.90;57.90;;;;;;5029121;28;1392;-70
2023/11/01 14:30:33;;;;;;;;;;;20.90;57.80;;;;;;5029800;28;1467;-70